sensor_id;sensor_type;location;lat;lon;timestamp;pressure;altitude;pressure_sealevel;temperature;humidity
45941;BME280;31858;46.008;8.978;2023-04-07T00:04:09;94377.19;;;6.80;50.20
45941;BME280;31858;46.008;8.978;2023-04-07T00:14:12;94375.50;;;6.91;50.86
45941;BME280;31858;46.008;8.978;2023-04-07T00:24:14;94370.22;;;6.72;50.98
45941;BME280;31858;46.008;8.978;2023-04-07T00:34:17;94374.97;;;6.63;52.70
45941;BME280;31858;46.008;8.978;2023-04-07T00:44:19;94362.00;;;6.58;51.14
45941;BME280;31858;46.008;8.978;2023-04-07T00:54:23;94354.00;;;6.54;51.24
45941;BME280;31858;46.008;8.978;2023-04-07T01:04:27;94333.19;;;6.52;50.40
45941;BME280;31858;46.008;8.978;2023-04-07T01:14:39;94320.13;;;6.40;50.88
45941;BME280;31858;46.008;8.978;2023-04-07T01:35:12;94323.31;;;6.30;51.98
45941;BME280;31858;46.008;8.978;2023-04-07T01:45:15;94319.16;;;6.29;52.31
45941;BME280;31858;46.008;8.978;2023-04-07T01:55:18;94316.50;;;6.29;52.74
45941;BME280;31858;46.008;8.978;2023-04-07T02:05:20;94323.25;;;6.27;51.35
45941;BME280;31858;46.008;8.978;2023-04-07T02:15:25;94312.16;;;6.02;55.65
45941;BME280;31858;46.008;8.978;2023-04-07T02:25:30;94319.28;;;5.98;57.34
45941;BME280;31858;46.008;8.978;2023-04-07T02:35:35;94323.94;;;6.04;54.30
45941;BME280;31858;46.008;8.978;2023-04-07T02:45:37;94315.19;;;6.19;52.50
45941;BME280;31858;46.008;8.978;2023-04-07T02:55:40;94308.63;;;6.13;53.03
45941;BME280;31858;46.008;8.978;2023-04-07T03:05:42;94309.44;;;5.98;55.03
45941;BME280;31858;46.008;8.978;2023-04-07T03:15:45;94299.03;;;6.05;54.26
45941;BME280;31858;46.008;8.978;2023-04-07T03:25:46;94301.44;;;5.95;54.57
45941;BME280;31858;46.008;8.978;2023-04-07T03:35:49;94297.28;;;5.94;54.86
45941;BME280;31858;46.008;8.978;2023-04-07T03:45:52;94299.25;;;5.81;55.41
45941;BME280;31858;46.008;8.978;2023-04-07T03:55:55;94290.16;;;5.63;55.66
45941;BME280;31858;46.008;8.978;2023-04-07T04:05:56;94291.50;;;5.72;55.59
45941;BME280;31858;46.008;8.978;2023-04-07T04:15:59;94283.09;;;5.67;55.42
45941;BME280;31858;46.008;8.978;2023-04-07T04:26:01;94275.19;;;5.51;56.38
45941;BME280;31858;46.008;8.978;2023-04-07T04:36:05;94263.16;;;5.53;56.73
45941;BME280;31858;46.008;8.978;2023-04-07T04:46:07;94264.97;;;5.49;57.47
45941;BME280;31858;46.008;8.978;2023-04-07T04:56:10;94277.44;;;5.33;57.13
45941;BME280;31858;46.008;8.978;2023-04-07T05:06:12;94278.44;;;5.44;57.37
45941;BME280;31858;46.008;8.978;2023-04-07T05:16:15;94277.25;;;5.42;58.28
45941;BME280;31858;46.008;8.978;2023-04-07T05:26:16;94280.69;;;5.27;59.09
45941;BME280;31858;46.008;8.978;2023-04-07T05:36:19;94283.91;;;5.36;57.72
45941;BME280;31858;46.008;8.978;2023-04-07T05:46:21;94285.38;;;5.33;62.40
45941;BME280;31858;46.008;8.978;2023-04-07T05:56:24;94272.91;;;5.34;65.29
45941;BME280;31858;46.008;8.978;2023-04-07T06:06:26;94287.13;;;5.45;64.50
45941;BME280;31858;46.008;8.978;2023-04-07T06:16:29;94296.19;;;5.44;67.15
45941;BME280;31858;46.008;8.978;2023-04-07T06:26:31;94290.69;;;5.87;61.17
45941;BME280;31858;46.008;8.978;2023-04-07T06:36:34;94296.44;;;5.74;65.66
45941;BME280;31858;46.008;8.978;2023-04-07T06:46:35;94292.06;;;5.81;65.00
45941;BME280;31858;46.008;8.978;2023-04-07T06:56:39;94294.72;;;5.81;74.24
45941;BME280;31858;46.008;8.978;2023-04-07T07:06:40;94291.63;;;5.95;73.62
45941;BME280;31858;46.008;8.978;2023-04-07T07:16:43;94292.41;;;6.15;81.55
45941;BME280;31858;46.008;8.978;2023-04-07T07:26:45;94284.19;;;6.39;86.68
45941;BME280;31858;46.008;8.978;2023-04-07T07:36:48;94277.72;;;6.60;100.00
45941;BME280;31858;46.008;8.978;2023-04-07T07:46:50;94280.69;;;6.77;100.00
45941;BME280;31858;46.008;8.978;2023-04-07T07:56:53;94266.50;;;6.89;100.00
45941;BME280;31858;46.008;8.978;2023-04-07T08:06:54;94260.59;;;6.99;100.00
45941;BME280;31858;46.008;8.978;2023-04-07T08:16:57;94264.78;;;7.00;100.00
45941;BME280;31858;46.008;8.978;2023-04-07T08:26:59;94279.72;;;7.12;100.00
45941;BME280;31858;46.008;8.978;2023-04-07T08:37:02;94298.03;;;7.20;100.00
45941;BME280;31858;46.008;8.978;2023-04-07T08:47:05;94314.75;;;7.25;100.00
45941;BME280;31858;46.008;8.978;2023-04-07T08:57:09;94316.59;;;7.20;67.14
45941;BME280;31858;46.008;8.978;2023-04-07T09:07:12;94316.28;;;7.26;64.98
45941;BME280;31858;46.008;8.978;2023-04-07T09:17:15;94305.91;;;7.40;62.08
45941;BME280;31858;46.008;8.978;2023-04-07T09:27:17;94307.25;;;7.53;61.76
45941;BME280;31858;46.008;8.978;2023-04-07T09:37:21;94313.78;;;7.59;62.63
45941;BME280;31858;46.008;8.978;2023-04-07T09:47:25;94311.38;;;7.80;62.94
45941;BME280;31858;46.008;8.978;2023-04-07T09:57:29;94312.00;;;7.97;63.83
45941;BME280;31858;46.008;8.978;2023-04-07T10:07:31;94304.13;;;8.04;70.01
45941;BME280;31858;46.008;8.978;2023-04-07T10:17:35;94304.06;;;8.00;65.15
45941;BME280;31858;46.008;8.978;2023-04-07T10:27:40;94306.00;;;8.03;66.58
45941;BME280;31858;46.008;8.978;2023-04-07T10:38:12;94296.34;;;8.18;64.37
45941;BME280;31858;46.008;8.978;2023-04-07T10:48:17;94300.41;;;8.38;63.87
45941;BME280;31858;46.008;8.978;2023-04-07T10:58:21;94289.25;;;8.59;64.68
45941;BME280;31858;46.008;8.978;2023-04-07T11:08:31;94280.00;;;8.83;65.10
45941;BME280;31858;46.008;8.978;2023-04-07T11:18:35;94279.38;;;8.97;63.08
45941;BME280;31858;46.008;8.978;2023-04-07T11:28:44;94280.47;;;8.92;58.58
45941;BME280;31858;46.008;8.978;2023-04-07T11:38:47;94280.53;;;8.99;57.93
45941;BME280;31858;46.008;8.978;2023-04-07T11:48:49;94268.13;;;9.18;59.34
45941;BME280;31858;46.008;8.978;2023-04-07T11:58:53;94274.78;;;9.45;57.49
45941;BME280;31858;46.008;8.978;2023-04-07T12:08:55;94257.97;;;9.92;57.19
45941;BME280;31858;46.008;8.978;2023-04-07T12:18:58;94249.41;;;10.41;50.74
45941;BME280;31858;46.008;8.978;2023-04-07T12:29:00;94239.19;;;10.65;49.34
45941;BME280;31858;46.008;8.978;2023-04-07T12:39:05;94220.56;;;10.93;49.24
45941;BME280;31858;46.008;8.978;2023-04-07T12:49:07;94208.75;;;11.30;49.55
45941;BME280;31858;46.008;8.978;2023-04-07T12:59:10;94193.50;;;11.34;48.45
45941;BME280;31858;46.008;8.978;2023-04-07T13:09:13;94177.88;;;11.29;47.26
45941;BME280;31858;46.008;8.978;2023-04-07T13:19:16;94168.72;;;11.44;48.52
45941;BME280;31858;46.008;8.978;2023-04-07T13:29:18;94155.72;;;11.53;49.58
45941;BME280;31858;46.008;8.978;2023-04-07T13:39:21;94145.06;;;11.46;48.13
45941;BME280;31858;46.008;8.978;2023-04-07T13:49:23;94141.69;;;11.35;45.92
45941;BME280;31858;46.008;8.978;2023-04-07T13:59:26;94132.94;;;11.17;44.29
45941;BME280;31858;46.008;8.978;2023-04-07T14:09:28;94136.81;;;10.73;44.55
45941;BME280;31858;46.008;8.978;2023-04-07T14:19:31;94131.47;;;10.66;45.83
45941;BME280;31858;46.008;8.978;2023-04-07T14:29:34;94133.75;;;10.67;46.36
45941;BME280;31858;46.008;8.978;2023-04-07T14:39:37;94141.75;;;10.74;45.04
45941;BME280;31858;46.008;8.978;2023-04-07T14:49:38;94138.69;;;10.62;45.67
45941;BME280;31858;46.008;8.978;2023-04-07T14:59:41;94130.31;;;10.60;47.85
45941;BME280;31858;46.008;8.978;2023-04-07T15:09:43;94133.38;;;10.55;48.03
45941;BME280;31858;46.008;8.978;2023-04-07T15:19:46;94135.28;;;10.58;49.10
45941;BME280;31858;46.008;8.978;2023-04-07T15:29:47;94143.63;;;10.45;49.62
45941;BME280;31858;46.008;8.978;2023-04-07T15:39:50;94146.69;;;10.33;50.93
45941;BME280;31858;46.008;8.978;2023-04-07T15:49:52;94145.16;;;10.25;51.72
45941;BME280;31858;46.008;8.978;2023-04-07T15:59:55;94144.00;;;10.23;50.27
45941;BME280;31858;46.008;8.978;2023-04-07T16:09:57;94138.31;;;10.28;53.45
45941;BME280;31858;46.008;8.978;2023-04-07T16:19:59;94148.97;;;10.24;50.26
45941;BME280;31858;46.008;8.978;2023-04-07T16:30:01;94154.94;;;10.00;50.63
45941;BME280;31858;46.008;8.978;2023-04-07T16:40:07;94161.78;;;9.94;50.85
45941;BME280;31858;46.008;8.978;2023-04-07T16:50:09;94164.69;;;9.64;92.74
45941;BME280;31858;46.008;8.978;2023-04-07T17:00:13;94171.63;;;9.13;100.00
45941;BME280;31858;46.008;8.978;2023-04-07T17:10:15;94186.47;;;8.63;100.00
45941;BME280;31858;46.008;8.978;2023-04-07T17:20:18;94192.31;;;8.83;91.36
45941;BME280;31858;46.008;8.978;2023-04-07T17:30:19;94203.81;;;8.98;100.00
45941;BME280;31858;46.008;8.978;2023-04-07T17:40:23;94203.44;;;8.96;92.98
45941;BME280;31858;46.008;8.978;2023-04-07T17:50:24;94214.31;;;8.80;100.00
45941;BME280;31858;46.008;8.978;2023-04-07T18:00:28;94215.00;;;8.73;100.00
45941;BME280;31858;46.008;8.978;2023-04-07T18:10:29;94230.09;;;8.62;100.00
45941;BME280;31858;46.008;8.978;2023-04-07T18:20:32;94224.22;;;8.42;100.00
45941;BME280;31858;46.008;8.978;2023-04-07T18:30:34;94245.22;;;8.58;100.00
45941;BME280;31858;46.008;8.978;2023-04-07T18:40:38;94251.63;;;8.54;100.00
45941;BME280;31858;46.008;8.978;2023-04-07T18:50:39;94256.63;;;8.59;100.00
45941;BME280;31858;46.008;8.978;2023-04-07T19:00:42;94262.06;;;8.36;100.00
45941;BME280;31858;46.008;8.978;2023-04-07T19:10:44;94273.75;;;8.31;100.00
45941;BME280;31858;46.008;8.978;2023-04-07T19:20:47;94274.94;;;8.34;100.00
45941;BME280;31858;46.008;8.978;2023-04-07T19:30:49;94279.88;;;8.35;100.00
45941;BME280;31858;46.008;8.978;2023-04-07T19:40:52;94278.41;;;8.38;100.00
45941;BME280;31858;46.008;8.978;2023-04-07T19:50:53;94289.31;;;8.66;100.00
45941;BME280;31858;46.008;8.978;2023-04-07T20:00:56;94295.50;;;8.40;100.00
45941;BME280;31858;46.008;8.978;2023-04-07T20:10:58;94305.59;;;8.01;100.00
45941;BME280;31858;46.008;8.978;2023-04-07T20:21:02;94308.13;;;7.91;100.00
45941;BME280;31858;46.008;8.978;2023-04-07T20:31:05;94304.28;;;7.88;100.00
45941;BME280;31858;46.008;8.978;2023-04-07T20:41:11;94302.31;;;7.81;100.00
45941;BME280;31858;46.008;8.978;2023-04-07T20:51:12;94301.03;;;7.68;100.00
45941;BME280;31858;46.008;8.978;2023-04-07T21:01:15;94306.06;;;7.50;100.00
45941;BME280;31858;46.008;8.978;2023-04-07T21:11:17;94310.97;;;7.48;100.00
45941;BME280;31858;46.008;8.978;2023-04-07T21:21:20;94306.00;;;7.47;100.00
45941;BME280;31858;46.008;8.978;2023-04-07T21:31:22;94310.44;;;7.39;100.00
45941;BME280;31858;46.008;8.978;2023-04-07T21:41:25;94308.03;;;7.31;100.00
45941;BME280;31858;46.008;8.978;2023-04-07T21:51:27;94317.22;;;7.37;100.00
45941;BME280;31858;46.008;8.978;2023-04-07T22:01:30;94309.78;;;7.46;100.00
45941;BME280;31858;46.008;8.978;2023-04-07T22:11:32;94315.72;;;7.62;100.00
45941;BME280;31858;46.008;8.978;2023-04-07T22:21:35;94323.84;;;7.50;100.00
45941;BME280;31858;46.008;8.978;2023-04-07T22:31:36;94330.88;;;7.39;100.00
45941;BME280;31858;46.008;8.978;2023-04-07T22:41:39;94329.25;;;7.31;100.00
45941;BME280;31858;46.008;8.978;2023-04-07T22:51:41;94340.56;;;7.28;100.00
45941;BME280;31858;46.008;8.978;2023-04-07T23:01:48;94347.78;;;7.31;100.00
45941;BME280;31858;46.008;8.978;2023-04-07T23:11:50;94342.19;;;7.36;100.00
45941;BME280;31858;46.008;8.978;2023-04-07T23:21:53;94345.66;;;7.40;100.00
45941;BME280;31858;46.008;8.978;2023-04-07T23:31:54;94349.38;;;7.12;100.00
45941;BME280;31858;46.008;8.978;2023-04-07T23:41:57;94357.50;;;7.00;100.00
45941;BME280;31858;46.008;8.978;2023-04-07T23:51:59;94355.00;;;6.88;100.00
